sensor_id;sensor_type;location;lat;lon;timestamp;P1;durP1;ratioP1;P2;durP2;ratioP2
49834;SDS011;35729;52.090;13.162;2023-02-28T00:01:33;16.95;;;10.73;;
49834;SDS011;35729;52.090;13.162;2023-02-28T00:04:02;16.58;;;9.98;;
49834;SDS011;35729;52.090;13.162;2023-02-28T00:06:30;15.10;;;9.57;;
49834;SDS011;35729;52.090;13.162;2023-02-28T00:09:01;13.23;;;9.00;;
49834;SDS011;35729;52.090;13.162;2023-02-28T00:11:30;13.82;;;8.75;;
49834;SDS011;35729;52.090;13.162;2023-02-28T00:13:58;13.38;;;8.50;;
49834;SDS011;35729;52.090;13.162;2023-02-28T00:16:27;12.10;;;8.02;;
49834;SDS011;35729;52.090;13.162;2023-02-28T00:18:55;12.50;;;8.52;;
49834;SDS011;35729;52.090;13.162;2023-02-28T00:21:24;11.85;;;7.45;;
49834;SDS011;35729;52.090;13.162;2023-02-28T00:23:52;9.68;;;6.72;;
49834;SDS011;35729;52.090;13.162;2023-02-28T00:26:23;11.50;;;7.65;;
49834;SDS011;35729;52.090;13.162;2023-02-28T00:28:52;11.60;;;7.53;;
49834;SDS011;35729;52.090;13.162;2023-02-28T00:31:20;12.68;;;8.75;;
49834;SDS011;35729;52.090;13.162;2023-02-28T00:33:49;12.35;;;8.63;;
49834;SDS011;35729;52.090;13.162;2023-02-28T00:36:17;13.07;;;9.07;;
49834;SDS011;35729;52.090;13.162;2023-02-28T00:38:45;12.85;;;9.15;;
49834;SDS011;35729;52.090;13.162;2023-02-28T00:41:14;12.52;;;8.63;;
49834;SDS011;35729;52.090;13.162;2023-02-28T00:43:45;11.68;;;8.40;;
49834;SDS011;35729;52.090;13.162;2023-02-28T00:46:14;11.07;;;8.52;;
49834;SDS011;35729;52.090;13.162;2023-02-28T00:48:42;12.88;;;7.93;;
49834;SDS011;35729;52.090;13.162;2023-02-28T00:51:10;9.07;;;7.13;;
49834;SDS011;35729;52.090;13.162;2023-02-28T00:53:39;12.57;;;6.97;;
49834;SDS011;35729;52.090;13.162;2023-02-28T00:56:07;11.15;;;8.27;;
49834;SDS011;35729;52.090;13.162;2023-02-28T00:58:36;12.60;;;8.20;;
49834;SDS011;35729;52.090;13.162;2023-02-28T01:01:07;13.45;;;8.48;;
49834;SDS011;35729;52.090;13.162;2023-02-28T01:03:35;9.48;;;7.07;;
49834;SDS011;35729;52.090;13.162;2023-02-28T01:06:04;10.60;;;7.63;;
49834;SDS011;35729;52.090;13.162;2023-02-28T01:08:33;9.95;;;8.18;;
49834;SDS011;35729;52.090;13.162;2023-02-28T01:11:06;11.80;;;8.77;;
49834;SDS011;35729;52.090;13.162;2023-02-28T01:13:36;11.48;;;8.25;;
49834;SDS011;35729;52.090;13.162;2023-02-28T01:16:07;11.40;;;8.45;;
49834;SDS011;35729;52.090;13.162;2023-02-28T01:18:36;10.32;;;7.57;;
49834;SDS011;35729;52.090;13.162;2023-02-28T01:21:05;9.75;;;7.90;;
49834;SDS011;35729;52.090;13.162;2023-02-28T01:23:35;9.55;;;7.78;;
49834;SDS011;35729;52.090;13.162;2023-02-28T01:26:04;11.65;;;8.40;;
49834;SDS011;35729;52.090;13.162;2023-02-28T01:28:33;12.20;;;8.20;;
49834;SDS011;35729;52.090;13.162;2023-02-28T01:31:02;12.05;;;8.18;;
49834;SDS011;35729;52.090;13.162;2023-02-28T01:33:33;10.40;;;7.43;;
49834;SDS011;35729;52.090;13.162;2023-02-28T01:36:03;9.60;;;7.13;;
49834;SDS011;35729;52.090;13.162;2023-02-28T01:38:34;9.50;;;6.70;;
49834;SDS011;35729;52.090;13.162;2023-02-28T01:41:02;9.13;;;6.75;;
49834;SDS011;35729;52.090;13.162;2023-02-28T01:43:32;8.15;;;6.40;;
49834;SDS011;35729;52.090;13.162;2023-02-28T01:46:19;8.35;;;6.22;;
49834;SDS011;35729;52.090;13.162;2023-02-28T01:48:51;8.00;;;5.85;;
49834;SDS011;35729;52.090;13.162;2023-02-28T01:51:22;7.15;;;5.80;;
49834;SDS011;35729;52.090;13.162;2023-02-28T01:53:56;7.23;;;5.70;;
49834;SDS011;35729;52.090;13.162;2023-02-28T01:56:29;7.75;;;5.43;;
49834;SDS011;35729;52.090;13.162;2023-02-28T01:59:00;8.23;;;5.57;;
49834;SDS011;35729;52.090;13.162;2023-02-28T02:01:30;9.18;;;5.53;;
49834;SDS011;35729;52.090;13.162;2023-02-28T02:04:02;7.78;;;5.32;;
49834;SDS011;35729;52.090;13.162;2023-02-28T02:06:34;8.48;;;5.38;;
49834;SDS011;35729;52.090;13.162;2023-02-28T02:09:05;6.93;;;4.63;;
49834;SDS011;35729;52.090;13.162;2023-02-28T02:11:34;6.90;;;3.85;;
49834;SDS011;35729;52.090;13.162;2023-02-28T02:14:12;6.60;;;4.30;;
49834;SDS011;35729;52.090;13.162;2023-02-28T02:17:04;7.78;;;4.38;;
49834;SDS011;35729;52.090;13.162;2023-02-28T02:22:47;5.53;;;4.18;;
49834;SDS011;35729;52.090;13.162;2023-02-28T02:25:44;7.78;;;5.47;;
49834;SDS011;35729;52.090;13.162;2023-02-28T02:34:44;7.22;;;5.20;;
49834;SDS011;35729;52.090;13.162;2023-02-28T02:37:24;7.32;;;5.15;;
49834;SDS011;35729;52.090;13.162;2023-02-28T02:39:59;7.60;;;5.72;;
49834;SDS011;35729;52.090;13.162;2023-02-28T02:42:35;7.35;;;4.70;;
49834;SDS011;35729;52.090;13.162;2023-02-28T02:45:09;6.88;;;4.78;;
49834;SDS011;35729;52.090;13.162;2023-02-28T02:47:42;6.05;;;4.53;;
49834;SDS011;35729;52.090;13.162;2023-02-28T02:50:17;7.57;;;4.97;;
49834;SDS011;35729;52.090;13.162;2023-02-28T02:52:51;7.25;;;4.68;;
49834;SDS011;35729;52.090;13.162;2023-02-28T02:57:53;7.80;;;5.22;;
49834;SDS011;35729;52.090;13.162;2023-02-28T03:00:27;8.35;;;6.22;;
49834;SDS011;35729;52.090;13.162;2023-02-28T03:03:00;8.82;;;6.82;;
49834;SDS011;35729;52.090;13.162;2023-02-28T03:05:33;12.48;;;7.28;;
49834;SDS011;35729;52.090;13.162;2023-02-28T03:08:07;10.45;;;7.20;;
49834;SDS011;35729;52.090;13.162;2023-02-28T03:10:37;9.80;;;6.70;;
49834;SDS011;35729;52.090;13.162;2023-02-28T03:13:29;10.25;;;6.20;;
49834;SDS011;35729;52.090;13.162;2023-02-28T03:16:15;9.85;;;6.88;;
49834;SDS011;35729;52.090;13.162;2023-02-28T03:18:59;8.65;;;5.82;;
49834;SDS011;35729;52.090;13.162;2023-02-28T03:21:40;7.60;;;5.32;;
49834;SDS011;35729;52.090;13.162;2023-02-28T03:24:15;7.88;;;5.80;;
49834;SDS011;35729;52.090;13.162;2023-02-28T03:26:48;8.88;;;6.20;;
49834;SDS011;35729;52.090;13.162;2023-02-28T03:29:26;11.15;;;6.60;;
49834;SDS011;35729;52.090;13.162;2023-02-28T03:32:02;6.57;;;5.68;;
49834;SDS011;35729;52.090;13.162;2023-02-28T03:34:39;8.80;;;5.93;;
49834;SDS011;35729;52.090;13.162;2023-02-28T03:37:18;8.85;;;6.78;;
49834;SDS011;35729;52.090;13.162;2023-02-28T03:39:51;10.48;;;7.15;;
49834;SDS011;35729;52.090;13.162;2023-02-28T03:42:25;10.50;;;6.97;;
49834;SDS011;35729;52.090;13.162;2023-02-28T03:44:57;10.82;;;6.97;;
49834;SDS011;35729;52.090;13.162;2023-02-28T03:47:30;8.60;;;6.63;;
49834;SDS011;35729;52.090;13.162;2023-02-28T03:50:05;8.80;;;6.30;;
49834;SDS011;35729;52.090;13.162;2023-02-28T03:52:40;13.48;;;7.05;;
49834;SDS011;35729;52.090;13.162;2023-02-28T03:55:13;8.48;;;6.43;;
49834;SDS011;35729;52.090;13.162;2023-02-28T03:57:47;10.20;;;6.22;;
49834;SDS011;35729;52.090;13.162;2023-02-28T04:00:25;7.88;;;5.43;;
49834;SDS011;35729;52.090;13.162;2023-02-28T04:02:59;9.57;;;6.75;;
49834;SDS011;35729;52.090;13.162;2023-02-28T04:05:29;8.93;;;6.50;;
49834;SDS011;35729;52.090;13.162;2023-02-28T04:08:06;7.65;;;5.60;;
49834;SDS011;35729;52.090;13.162;2023-02-28T04:10:35;9.70;;;6.22;;
49834;SDS011;35729;52.090;13.162;2023-02-28T04:13:04;7.47;;;5.45;;
49834;SDS011;35729;52.090;13.162;2023-02-28T04:15:32;9.90;;;5.78;;
49834;SDS011;35729;52.090;13.162;2023-02-28T04:18:01;9.18;;;5.70;;
49834;SDS011;35729;52.090;13.162;2023-02-28T04:20:30;9.82;;;5.97;;
49834;SDS011;35729;52.090;13.162;2023-02-28T04:23:08;8.07;;;6.03;;
49834;SDS011;35729;52.090;13.162;2023-02-28T04:25:36;7.60;;;5.88;;
49834;SDS011;35729;52.090;13.162;2023-02-28T04:28:05;9.50;;;6.50;;
49834;SDS011;35729;52.090;13.162;2023-02-28T04:30:40;9.73;;;6.50;;
49834;SDS011;35729;52.090;13.162;2023-02-28T04:33:08;10.68;;;6.60;;
49834;SDS011;35729;52.090;13.162;2023-02-28T04:35:37;8.82;;;5.95;;
49834;SDS011;35729;52.090;13.162;2023-02-28T04:38:08;9.40;;;6.25;;
49834;SDS011;35729;52.090;13.162;2023-02-28T04:40:36;8.98;;;6.10;;
49834;SDS011;35729;52.090;13.162;2023-02-28T04:43:04;8.00;;;5.70;;
49834;SDS011;35729;52.090;13.162;2023-02-28T04:45:33;9.10;;;5.95;;
49834;SDS011;35729;52.090;13.162;2023-02-28T04:48:02;10.02;;;6.60;;
49834;SDS011;35729;52.090;13.162;2023-02-28T04:50:31;9.00;;;6.63;;
49834;SDS011;35729;52.090;13.162;2023-02-28T04:52:59;9.80;;;6.55;;
49834;SDS011;35729;52.090;13.162;2023-02-28T04:55:30;10.88;;;7.53;;
49834;SDS011;35729;52.090;13.162;2023-02-28T04:57:59;8.90;;;6.80;;
49834;SDS011;35729;52.090;13.162;2023-02-28T05:00:27;9.40;;;7.18;;
49834;SDS011;35729;52.090;13.162;2023-02-28T05:02:56;10.27;;;7.35;;
49834;SDS011;35729;52.090;13.162;2023-02-28T05:05:24;8.48;;;6.40;;
49834;SDS011;35729;52.090;13.162;2023-02-28T05:07:53;9.60;;;6.88;;
49834;SDS011;35729;52.090;13.162;2023-02-28T05:10:21;9.57;;;7.00;;
49834;SDS011;35729;52.090;13.162;2023-02-28T05:12:53;9.40;;;6.40;;
49834;SDS011;35729;52.090;13.162;2023-02-28T05:15:21;12.63;;;7.50;;
49834;SDS011;35729;52.090;13.162;2023-02-28T05:17:50;9.95;;;6.72;;
49834;SDS011;35729;52.090;13.162;2023-02-28T05:20:18;11.75;;;7.45;;
49834;SDS011;35729;52.090;13.162;2023-02-28T05:22:47;11.40;;;7.10;;
49834;SDS011;35729;52.090;13.162;2023-02-28T05:25:16;10.02;;;7.05;;
49834;SDS011;35729;52.090;13.162;2023-02-28T05:27:46;10.30;;;7.05;;
49834;SDS011;35729;52.090;13.162;2023-02-28T05:30:18;10.82;;;7.38;;
49834;SDS011;35729;52.090;13.162;2023-02-28T05:32:49;10.02;;;7.07;;
49834;SDS011;35729;52.090;13.162;2023-02-28T05:35:18;8.77;;;6.65;;
49834;SDS011;35729;52.090;13.162;2023-02-28T05:37:47;9.77;;;6.70;;
49834;SDS011;35729;52.090;13.162;2023-02-28T05:40:16;12.48;;;6.72;;
49834;SDS011;35729;52.090;13.162;2023-02-28T05:42:45;10.50;;;7.78;;
49834;SDS011;35729;52.090;13.162;2023-02-28T05:45:13;11.23;;;7.05;;
49834;SDS011;35729;52.090;13.162;2023-02-28T05:47:44;14.70;;;9.45;;
49834;SDS011;35729;52.090;13.162;2023-02-28T05:50:13;12.43;;;8.05;;
49834;SDS011;35729;52.090;13.162;2023-02-28T05:52:41;10.63;;;7.82;;
49834;SDS011;35729;52.090;13.162;2023-02-28T05:55:10;14.73;;;9.80;;
49834;SDS011;35729;52.090;13.162;2023-02-28T05:57:38;17.02;;;11.35;;
49834;SDS011;35729;52.090;13.162;2023-02-28T06:00:08;16.52;;;10.38;;
49834;SDS011;35729;52.090;13.162;2023-02-28T06:02:40;15.07;;;8.95;;
49834;SDS011;35729;52.090;13.162;2023-02-28T06:05:12;15.02;;;9.60;;
49834;SDS011;35729;52.090;13.162;2023-02-28T06:07:42;12.02;;;8.20;;
49834;SDS011;35729;52.090;13.162;2023-02-28T06:10:11;12.00;;;8.45;;
49834;SDS011;35729;52.090;13.162;2023-02-28T06:12:40;16.60;;;9.25;;
49834;SDS011;35729;52.090;13.162;2023-02-28T06:15:11;11.00;;;8.45;;
49834;SDS011;35729;52.090;13.162;2023-02-28T06:17:40;14.35;;;9.80;;
49834;SDS011;35729;52.090;13.162;2023-02-28T06:20:12;13.77;;;9.23;;
49834;SDS011;35729;52.090;13.162;2023-02-28T06:22:40;14.02;;;9.40;;
49834;SDS011;35729;52.090;13.162;2023-02-28T06:25:09;14.57;;;9.32;;
49834;SDS011;35729;52.090;13.162;2023-02-28T06:27:38;14.18;;;9.65;;
49834;SDS011;35729;52.090;13.162;2023-02-28T06:30:07;20.55;;;10.70;;
49834;SDS011;35729;52.090;13.162;2023-02-28T06:32:36;17.00;;;10.88;;
49834;SDS011;35729;52.090;13.162;2023-02-28T06:35:05;14.75;;;9.85;;
49834;SDS011;35729;52.090;13.162;2023-02-28T06:37:37;15.30;;;10.57;;
49834;SDS011;35729;52.090;13.162;2023-02-28T06:40:06;16.17;;;10.52;;
49834;SDS011;35729;52.090;13.162;2023-02-28T06:42:38;15.35;;;11.13;;
49834;SDS011;35729;52.090;13.162;2023-02-28T06:45:07;13.90;;;9.80;;
49834;SDS011;35729;52.090;13.162;2023-02-28T06:47:37;13.55;;;10.63;;
49834;SDS011;35729;52.090;13.162;2023-02-28T06:50:07;13.68;;;9.88;;
49834;SDS011;35729;52.090;13.162;2023-02-28T06:52:40;13.32;;;9.95;;
49834;SDS011;35729;52.090;13.162;2023-02-28T06:55:09;13.50;;;9.95;;
49834;SDS011;35729;52.090;13.162;2023-02-28T06:57:37;13.10;;;9.32;;
49834;SDS011;35729;52.090;13.162;2023-02-28T07:00:07;10.38;;;8.80;;
49834;SDS011;35729;52.090;13.162;2023-02-28T07:02:37;9.82;;;8.45;;
49834;SDS011;35729;52.090;13.162;2023-02-28T07:05:06;10.32;;;8.02;;
49834;SDS011;35729;52.090;13.162;2023-02-28T07:07:35;9.88;;;8.13;;
49834;SDS011;35729;52.090;13.162;2023-02-28T07:10:09;9.88;;;7.22;;
49834;SDS011;35729;52.090;13.162;2023-02-28T07:12:41;11.75;;;7.88;;
49834;SDS011;35729;52.090;13.162;2023-02-28T07:15:10;13.52;;;8.52;;
49834;SDS011;35729;52.090;13.162;2023-02-28T07:17:39;17.17;;;7.95;;
49834;SDS011;35729;52.090;13.162;2023-02-28T07:20:08;11.18;;;7.57;;
49834;SDS011;35729;52.090;13.162;2023-02-28T07:22:37;10.55;;;7.47;;
49834;SDS011;35729;52.090;13.162;2023-02-28T07:25:09;12.07;;;7.78;;
49834;SDS011;35729;52.090;13.162;2023-02-28T07:27:38;11.80;;;7.30;;
49834;SDS011;35729;52.090;13.162;2023-02-28T07:30:07;10.85;;;7.97;;
49834;SDS011;35729;52.090;13.162;2023-02-28T07:32:37;11.13;;;7.88;;
49834;SDS011;35729;52.090;13.162;2023-02-28T07:35:06;10.93;;;8.18;;
49834;SDS011;35729;52.090;13.162;2023-02-28T07:37:35;9.88;;;7.97;;
49834;SDS011;35729;52.090;13.162;2023-02-28T07:40:05;11.30;;;8.25;;
49834;SDS011;35729;52.090;13.162;2023-02-28T07:42:39;11.88;;;8.20;;
49834;SDS011;35729;52.090;13.162;2023-02-28T07:45:09;11.43;;;8.30;;
49834;SDS011;35729;52.090;13.162;2023-02-28T07:47:39;15.57;;;8.27;;
49834;SDS011;35729;52.090;13.162;2023-02-28T07:50:10;13.23;;;9.00;;
49834;SDS011;35729;52.090;13.162;2023-02-28T07:52:40;10.90;;;8.27;;
49834;SDS011;35729;52.090;13.162;2023-02-28T07:55:09;9.68;;;8.23;;
49834;SDS011;35729;52.090;13.162;2023-02-28T07:57:41;11.57;;;9.00;;
49834;SDS011;35729;52.090;13.162;2023-02-28T08:00:10;13.20;;;8.57;;
49834;SDS011;35729;52.090;13.162;2023-02-28T08:02:40;12.65;;;7.85;;
49834;SDS011;35729;52.090;13.162;2023-02-28T08:05:08;11.63;;;8.00;;
49834;SDS011;35729;52.090;13.162;2023-02-28T08:07:37;13.75;;;8.35;;
49834;SDS011;35729;52.090;13.162;2023-02-28T08:10:06;14.85;;;8.15;;
49834;SDS011;35729;52.090;13.162;2023-02-28T08:12:36;8.68;;;6.65;;
49834;SDS011;35729;52.090;13.162;2023-02-28T08:15:07;9.10;;;6.60;;
49834;SDS011;35729;52.090;13.162;2023-02-28T08:17:36;12.50;;;7.85;;
49834;SDS011;35729;52.090;13.162;2023-02-28T08:20:06;9.43;;;6.55;;
49834;SDS011;35729;52.090;13.162;2023-02-28T08:22:38;11.05;;;6.88;;
49834;SDS011;35729;52.090;13.162;2023-02-28T08:25:07;10.88;;;6.82;;
49834;SDS011;35729;52.090;13.162;2023-02-28T08:27:37;27.48;;;15.48;;
49834;SDS011;35729;52.090;13.162;2023-02-28T08:30:09;18.88;;;11.05;;
49834;SDS011;35729;52.090;13.162;2023-02-28T08:32:38;14.80;;;8.82;;
49834;SDS011;35729;52.090;13.162;2023-02-28T08:35:08;14.10;;;8.35;;
49834;SDS011;35729;52.090;13.162;2023-02-28T08:37:37;13.65;;;7.25;;
49834;SDS011;35729;52.090;13.162;2023-02-28T08:40:06;14.25;;;7.95;;
49834;SDS011;35729;52.090;13.162;2023-02-28T08:42:38;13.50;;;7.05;;
49834;SDS011;35729;52.090;13.162;2023-02-28T08:45:09;9.13;;;6.65;;
49834;SDS011;35729;52.090;13.162;2023-02-28T08:47:38;8.73;;;5.57;;
49834;SDS011;35729;52.090;13.162;2023-02-28T08:50:08;9.43;;;5.40;;
49834;SDS011;35729;52.090;13.162;2023-02-28T08:52:41;7.90;;;5.57;;
49834;SDS011;35729;52.090;13.162;2023-02-28T08:55:10;9.45;;;5.95;;
49834;SDS011;35729;52.090;13.162;2023-02-28T08:57:38;7.82;;;5.35;;
49834;SDS011;35729;52.090;13.162;2023-02-28T09:00:10;9.65;;;5.60;;
49834;SDS011;35729;52.090;13.162;2023-02-28T09:02:40;8.68;;;5.45;;
49834;SDS011;35729;52.090;13.162;2023-02-28T09:05:09;7.07;;;4.40;;
49834;SDS011;35729;52.090;13.162;2023-02-28T09:07:38;7.50;;;4.88;;
49834;SDS011;35729;52.090;13.162;2023-02-28T09:10:07;6.53;;;4.30;;
49834;SDS011;35729;52.090;13.162;2023-02-28T09:12:36;9.32;;;4.93;;
49834;SDS011;35729;52.090;13.162;2023-02-28T09:15:05;8.25;;;5.32;;
49834;SDS011;35729;52.090;13.162;2023-02-28T09:17:38;7.18;;;4.75;;
49834;SDS011;35729;52.090;13.162;2023-02-28T09:20:07;8.00;;;4.45;;
49834;SDS011;35729;52.090;13.162;2023-02-28T09:22:36;9.27;;;4.63;;
49834;SDS011;35729;52.090;13.162;2023-02-28T09:25:05;8.38;;;4.60;;
49834;SDS011;35729;52.090;13.162;2023-02-28T09:27:34;7.10;;;4.00;;
49834;SDS011;35729;52.090;13.162;2023-02-28T09:30:03;7.75;;;4.53;;
49834;SDS011;35729;52.090;13.162;2023-02-28T09:32:32;7.07;;;3.88;;
49834;SDS011;35729;52.090;13.162;2023-02-28T09:35:03;6.60;;;4.45;;
49834;SDS011;35729;52.090;13.162;2023-02-28T09:37:38;8.55;;;4.13;;
49834;SDS011;35729;52.090;13.162;2023-02-28T09:40:07;7.25;;;4.95;;
49834;SDS011;35729;52.090;13.162;2023-02-28T09:42:38;6.32;;;3.72;;
49834;SDS011;35729;52.090;13.162;2023-02-28T09:45:15;5.78;;;3.90;;
49834;SDS011;35729;52.090;13.162;2023-02-28T09:47:52;5.80;;;3.85;;
49834;SDS011;35729;52.090;13.162;2023-02-28T09:50:32;9.48;;;4.90;;
49834;SDS011;35729;52.090;13.162;2023-02-28T09:53:05;7.40;;;4.10;;
49834;SDS011;35729;52.090;13.162;2023-02-28T09:55:42;6.32;;;3.65;;
49834;SDS011;35729;52.090;13.162;2023-02-28T09:58:15;12.10;;;4.53;;
49834;SDS011;35729;52.090;13.162;2023-02-28T10:00:49;7.93;;;4.15;;
49834;SDS011;35729;52.090;13.162;2023-02-28T10:03:29;6.53;;;3.78;;
49834;SDS011;35729;52.090;13.162;2023-02-28T10:06:05;6.90;;;4.43;;
49834;SDS011;35729;52.090;13.162;2023-02-28T10:08:40;5.68;;;4.28;;
49834;SDS011;35729;52.090;13.162;2023-02-28T10:11:18;8.02;;;4.95;;
49834;SDS011;35729;52.090;13.162;2023-02-28T10:13:50;6.18;;;4.05;;
49834;SDS011;35729;52.090;13.162;2023-02-28T10:16:27;10.98;;;5.50;;
49834;SDS011;35729;52.090;13.162;2023-02-28T10:19:01;5.82;;;3.97;;
49834;SDS011;35729;52.090;13.162;2023-02-28T10:21:37;8.35;;;4.22;;
49834;SDS011;35729;52.090;13.162;2023-02-28T10:24:13;6.68;;;4.63;;
49834;SDS011;35729;52.090;13.162;2023-02-28T10:26:48;7.72;;;4.72;;
49834;SDS011;35729;52.090;13.162;2023-02-28T10:29:20;7.25;;;4.18;;
49834;SDS011;35729;52.090;13.162;2023-02-28T10:31:55;6.15;;;3.78;;
49834;SDS011;35729;52.090;13.162;2023-02-28T10:34:23;7.43;;;3.80;;
49834;SDS011;35729;52.090;13.162;2023-02-28T10:36:55;8.40;;;4.60;;
49834;SDS011;35729;52.090;13.162;2023-02-28T10:39:38;4.50;;;3.80;;
49834;SDS011;35729;52.090;13.162;2023-02-28T10:42:19;6.20;;;3.40;;
49834;SDS011;35729;52.090;13.162;2023-02-28T10:45:04;7.20;;;4.78;;
49834;SDS011;35729;52.090;13.162;2023-02-28T10:47:36;7.85;;;4.32;;
49834;SDS011;35729;52.090;13.162;2023-02-28T10:53:22;8.60;;;6.00;;
49834;SDS011;35729;52.090;13.162;2023-02-28T10:56:00;9.13;;;4.70;;
49834;SDS011;35729;52.090;13.162;2023-02-28T10:58:32;6.82;;;4.68;;
49834;SDS011;35729;52.090;13.162;2023-02-28T11:01:15;6.07;;;4.43;;
49834;SDS011;35729;52.090;13.162;2023-02-28T11:03:45;6.90;;;4.00;;
49834;SDS011;35729;52.090;13.162;2023-02-28T11:06:15;11.93;;;6.80;;
49834;SDS011;35729;52.090;13.162;2023-02-28T11:08:49;14.98;;;8.13;;
49834;SDS011;35729;52.090;13.162;2023-02-28T11:11:19;9.07;;;6.22;;
49834;SDS011;35729;52.090;13.162;2023-02-28T11:13:51;10.63;;;6.80;;
49834;SDS011;35729;52.090;13.162;2023-02-28T11:16:21;7.93;;;4.18;;
49834;SDS011;35729;52.090;13.162;2023-02-28T11:19:00;5.60;;;3.97;;
49834;SDS011;35729;52.090;13.162;2023-02-28T11:21:29;5.80;;;4.28;;
49834;SDS011;35729;52.090;13.162;2023-02-28T11:24:04;7.38;;;4.50;;
49834;SDS011;35729;52.090;13.162;2023-02-28T11:26:43;6.30;;;4.18;;
49834;SDS011;35729;52.090;13.162;2023-02-28T11:29:18;6.85;;;3.88;;
49834;SDS011;35729;52.090;13.162;2023-02-28T11:32:01;7.55;;;3.33;;
49834;SDS011;35729;52.090;13.162;2023-02-28T11:34:33;7.32;;;4.40;;
49834;SDS011;35729;52.090;13.162;2023-02-28T11:37:03;8.68;;;3.95;;
49834;SDS011;35729;52.090;13.162;2023-02-28T11:39:35;6.93;;;3.63;;
49834;SDS011;35729;52.090;13.162;2023-02-28T11:42:10;5.65;;;3.92;;
49834;SDS011;35729;52.090;13.162;2023-02-28T11:44:54;6.05;;;3.78;;
49834;SDS011;35729;52.090;13.162;2023-02-28T11:47:37;6.97;;;4.43;;
49834;SDS011;35729;52.090;13.162;2023-02-28T11:50:26;9.68;;;5.40;;
49834;SDS011;35729;52.090;13.162;2023-02-28T11:53:14;6.40;;;4.22;;
49834;SDS011;35729;52.090;13.162;2023-02-28T11:55:53;9.05;;;4.40;;
49834;SDS011;35729;52.090;13.162;2023-02-28T11:58:33;7.55;;;4.00;;
49834;SDS011;35729;52.090;13.162;2023-02-28T12:04:08;7.13;;;3.45;;
49834;SDS011;35729;52.090;13.162;2023-02-28T12:06:45;7.10;;;3.80;;
49834;SDS011;35729;52.090;13.162;2023-02-28T12:09:28;4.85;;;3.40;;
49834;SDS011;35729;52.090;13.162;2023-02-28T12:12:14;6.10;;;3.75;;
49834;SDS011;35729;52.090;13.162;2023-02-28T12:15:01;6.90;;;4.18;;
49834;SDS011;35729;52.090;13.162;2023-02-28T12:17:46;6.15;;;3.70;;
49834;SDS011;35729;52.090;13.162;2023-02-28T12:20:25;4.70;;;3.42;;
49834;SDS011;35729;52.090;13.162;2023-02-28T12:23:07;5.18;;;3.45;;
49834;SDS011;35729;52.090;13.162;2023-02-28T12:25:51;5.43;;;3.53;;
49834;SDS011;35729;52.090;13.162;2023-02-28T12:28:31;9.85;;;4.47;;
49834;SDS011;35729;52.090;13.162;2023-02-28T12:31:09;7.35;;;4.35;;
49834;SDS011;35729;52.090;13.162;2023-02-28T12:34:06;7.20;;;3.63;;
49834;SDS011;35729;52.090;13.162;2023-02-28T12:39:16;6.65;;;3.17;;
49834;SDS011;35729;52.090;13.162;2023-02-28T12:41:59;6.45;;;3.50;;
49834;SDS011;35729;52.090;13.162;2023-02-28T12:44:34;5.43;;;3.50;;
49834;SDS011;35729;52.090;13.162;2023-02-28T12:47:15;3.67;;;2.90;;
49834;SDS011;35729;52.090;13.162;2023-02-28T12:49:45;4.63;;;3.40;;
49834;SDS011;35729;52.090;13.162;2023-02-28T12:52:19;6.45;;;3.45;;
49834;SDS011;35729;52.090;13.162;2023-02-28T12:54:54;4.15;;;2.75;;
49834;SDS011;35729;52.090;13.162;2023-02-28T12:57:31;7.88;;;2.83;;
49834;SDS011;35729;52.090;13.162;2023-02-28T13:00:11;7.28;;;3.85;;
49834;SDS011;35729;52.090;13.162;2023-02-28T13:11:40;3.92;;;2.80;;
49834;SDS011;35729;52.090;13.162;2023-02-28T13:14:19;11.00;;;5.93;;
49834;SDS011;35729;52.090;13.162;2023-02-28T13:17:09;5.78;;;2.70;;
49834;SDS011;35729;52.090;13.162;2023-02-28T13:19:40;6.47;;;3.05;;
49834;SDS011;35729;52.090;13.162;2023-02-28T13:22:16;4.70;;;2.60;;
49834;SDS011;35729;52.090;13.162;2023-02-28T13:24:47;3.75;;;2.40;;
49834;SDS011;35729;52.090;13.162;2023-02-28T13:31:03;5.22;;;2.35;;
49834;SDS011;35729;52.090;13.162;2023-02-28T13:33:24;4.63;;;2.47;;
49834;SDS011;35729;52.090;13.162;2023-02-28T13:38:51;3.05;;;1.90;;
49834;SDS011;35729;52.090;13.162;2023-02-28T13:41:41;3.08;;;2.20;;
49834;SDS011;35729;52.090;13.162;2023-02-28T13:44:14;4.20;;;2.22;;
49834;SDS011;35729;52.090;13.162;2023-02-28T13:49:45;3.55;;;2.33;;
49834;SDS011;35729;52.090;13.162;2023-02-28T13:52:15;2.90;;;1.85;;
49834;SDS011;35729;52.090;13.162;2023-02-28T13:57:54;4.20;;;2.15;;
49834;SDS011;35729;52.090;13.162;2023-02-28T14:00:57;4.93;;;2.47;;
49834;SDS011;35729;52.090;13.162;2023-02-28T14:03:38;2.30;;;1.75;;
49834;SDS011;35729;52.090;13.162;2023-02-28T14:06:25;3.15;;;1.85;;
49834;SDS011;35729;52.090;13.162;2023-02-28T14:08:58;3.53;;;2.05;;
49834;SDS011;35729;52.090;13.162;2023-02-28T14:11:33;4.30;;;2.30;;
49834;SDS011;35729;52.090;13.162;2023-02-28T14:14:03;3.20;;;1.98;;
49834;SDS011;35729;52.090;13.162;2023-02-28T14:16:37;3.20;;;1.90;;
49834;SDS011;35729;52.090;13.162;2023-02-28T14:19:12;3.08;;;2.15;;
49834;SDS011;35729;52.090;13.162;2023-02-28T14:21:47;3.38;;;1.90;;
49834;SDS011;35729;52.090;13.162;2023-02-28T14:27:28;4.07;;;1.95;;
49834;SDS011;35729;52.090;13.162;2023-02-28T14:30:16;3.08;;;1.92;;
49834;SDS011;35729;52.090;13.162;2023-02-28T14:33:13;4.65;;;2.30;;
49834;SDS011;35729;52.090;13.162;2023-02-28T14:35:52;2.60;;;2.00;;
49834;SDS011;35729;52.090;13.162;2023-02-28T14:38:36;4.10;;;2.45;;
49834;SDS011;35729;52.090;13.162;2023-02-28T14:41:13;3.13;;;2.15;;
49834;SDS011;35729;52.090;13.162;2023-02-28T14:43:50;4.40;;;2.25;;
49834;SDS011;35729;52.090;13.162;2023-02-28T14:46:21;3.53;;;1.90;;
49834;SDS011;35729;52.090;13.162;2023-02-28T14:48:53;4.10;;;2.20;;
49834;SDS011;35729;52.090;13.162;2023-02-28T14:51:22;3.67;;;2.25;;
49834;SDS011;35729;52.090;13.162;2023-02-28T14:53:56;3.53;;;2.10;;
49834;SDS011;35729;52.090;13.162;2023-02-28T14:56:27;4.13;;;2.10;;
49834;SDS011;35729;52.090;13.162;2023-02-28T14:59:00;4.20;;;2.05;;
49834;SDS011;35729;52.090;13.162;2023-02-28T15:01:29;5.43;;;2.38;;
49834;SDS011;35729;52.090;13.162;2023-02-28T15:04:02;4.07;;;2.15;;
49834;SDS011;35729;52.090;13.162;2023-02-28T15:06:32;2.53;;;1.73;;
49834;SDS011;35729;52.090;13.162;2023-02-28T15:09:11;9.65;;;5.78;;
49834;SDS011;35729;52.090;13.162;2023-02-28T15:11:45;2.90;;;2.00;;
49834;SDS011;35729;52.090;13.162;2023-02-28T15:14:17;4.57;;;2.60;;
49834;SDS011;35729;52.090;13.162;2023-02-28T15:16:49;4.50;;;2.30;;
49834;SDS011;35729;52.090;13.162;2023-02-28T15:19:21;3.17;;;2.00;;
49834;SDS011;35729;52.090;13.162;2023-02-28T15:21:53;4.80;;;2.45;;
49834;SDS011;35729;52.090;13.162;2023-02-28T15:24:30;3.88;;;2.20;;
49834;SDS011;35729;52.090;13.162;2023-02-28T15:27:03;3.92;;;2.38;;
49834;SDS011;35729;52.090;13.162;2023-02-28T15:29:36;4.45;;;2.72;;
49834;SDS011;35729;52.090;13.162;2023-02-28T15:32:21;3.70;;;2.28;;
49834;SDS011;35729;52.090;13.162;2023-02-28T15:34:53;4.60;;;2.60;;
49834;SDS011;35729;52.090;13.162;2023-02-28T15:37:28;3.75;;;2.20;;
49834;SDS011;35729;52.090;13.162;2023-02-28T15:40:10;3.67;;;2.88;;
49834;SDS011;35729;52.090;13.162;2023-02-28T15:42:42;2.92;;;2.10;;
49834;SDS011;35729;52.090;13.162;2023-02-28T15:48:16;6.05;;;2.97;;
49834;SDS011;35729;52.090;13.162;2023-02-28T15:50:47;6.13;;;3.40;;